createdAt,value
2023-01-25T00:00:53.942Z,0.90
2023-01-25T00:03:22.148Z,0.90
2023-01-25T00:05:50.222Z,0.90
2023-01-25T00:08:18.275Z,0.90
2023-01-25T00:10:46.292Z,0.90
2023-01-25T00:13:15.748Z,0.80
2023-01-25T00:15:43.805Z,0.90
2023-01-25T00:18:11.850Z,0.90
2023-01-25T00:20:39.903Z,0.90
2023-01-25T00:23:07.959Z,0.90
2023-01-25T00:25:35.988Z,0.90
2023-01-25T00:28:04.083Z,0.90
2023-01-25T00:30:33.511Z,1.00
2023-01-25T00:33:07.814Z,1.00
2023-01-25T00:35:36.124Z,1.00
2023-01-25T00:38:15.297Z,0.90
2023-01-25T00:40:43.357Z,0.90
2023-01-25T00:43:11.400Z,0.90
2023-01-25T00:45:40.970Z,0.90
2023-01-25T00:48:10.280Z,0.90
2023-01-25T00:50:38.448Z,0.90
2023-01-25T00:53:06.568Z,0.90
2023-01-25T00:55:34.638Z,0.80
2023-01-25T00:58:02.681Z,0.80
2023-01-25T01:00:30.780Z,0.90
2023-01-25T01:03:00.185Z,0.80
2023-01-25T01:05:29.485Z,0.90
2023-01-25T01:07:57.727Z,0.90
2023-01-25T01:10:25.785Z,0.90
2023-01-25T01:12:53.830Z,0.90
2023-01-25T01:15:22.130Z,0.90
2023-01-25T01:17:50.185Z,0.90
2023-01-25T01:20:19.825Z,1.00
2023-01-25T01:22:47.881Z,0.90
2023-01-25T01:25:16.000Z,0.90
2023-01-25T01:27:44.115Z,0.90
2023-01-25T01:30:13.084Z,0.90
2023-01-25T01:32:41.251Z,0.90
2023-01-25T01:35:10.322Z,0.90
2023-01-25T01:37:43.944Z,0.90
2023-01-25T01:40:15.614Z,0.90
2023-01-25T01:43:01.104Z,0.80
2023-01-25T01:45:50.681Z,0.80
2023-01-25T01:48:22.502Z,0.80
2023-01-25T01:50:54.677Z,0.90
2023-01-25T01:53:26.671Z,0.80
2023-01-25T01:56:00.692Z,0.90
2023-01-25T01:58:30.027Z,0.80
2023-01-25T02:00:58.328Z,0.80
2023-01-25T02:03:27.533Z,0.80
2023-01-25T02:05:59.445Z,0.80
2023-01-25T02:08:31.857Z,0.80
2023-01-25T02:11:00.251Z,0.80
2023-01-25T02:13:29.061Z,0.90
2023-01-25T02:15:57.434Z,0.80
2023-01-25T02:18:26.421Z,0.80
2023-01-25T02:20:57.866Z,0.80
2023-01-25T02:23:32.632Z,0.80
2023-01-25T02:26:05.299Z,0.80
2023-01-25T02:28:37.432Z,0.90
2023-01-25T02:31:05.910Z,0.80
2023-01-25T02:33:34.146Z,0.80
2023-01-25T02:36:18.680Z,0.80
2023-01-25T02:38:52.559Z,0.90
2023-01-25T02:41:26.793Z,0.80
2023-01-25T02:43:54.838Z,0.80
2023-01-25T02:46:27.688Z,0.80
2023-01-25T02:48:56.734Z,0.80
2023-01-25T02:51:26.828Z,0.80
2023-01-25T02:53:55.103Z,0.70
2023-01-25T02:56:25.117Z,0.70
2023-01-25T02:58:53.607Z,0.60
2023-01-25T03:01:21.870Z,0.70
2023-01-25T03:03:49.998Z,0.70
2023-01-25T03:06:18.149Z,0.70
2023-01-25T03:08:46.152Z,0.70
2023-01-25T03:11:14.203Z,0.80
2023-01-25T03:13:43.612Z,0.80
2023-01-25T03:16:13.542Z,0.70
2023-01-25T03:18:42.330Z,0.80
2023-01-25T03:21:12.807Z,0.80
2023-01-25T03:23:41.647Z,0.80
2023-01-25T03:26:12.071Z,0.70
2023-01-25T03:28:41.344Z,0.70
2023-01-25T03:31:12.753Z,0.70
2023-01-25T03:33:41.907Z,0.70
2023-01-25T03:36:11.045Z,0.80
2023-01-25T03:38:39.166Z,0.80
2023-01-25T03:41:07.953Z,0.70
2023-01-25T03:43:36.004Z,0.80
2023-01-25T03:46:04.250Z,0.90
2023-01-25T03:48:33.702Z,0.80
2023-01-25T03:51:02.038Z,0.80
2023-01-25T03:53:31.370Z,0.80
2023-01-25T03:56:01.802Z,0.70
2023-01-25T03:58:30.325Z,0.80
2023-01-25T04:00:59.875Z,0.70
2023-01-25T04:03:30.331Z,0.70
2023-01-25T04:06:01.310Z,0.70
2023-01-25T04:08:29.937Z,0.70
2023-01-25T04:11:01.356Z,0.70
2023-01-25T04:13:30.181Z,0.70
2023-01-25T04:15:58.612Z,0.60
2023-01-25T04:18:26.660Z,0.70
2023-01-25T04:20:56.111Z,0.60
2023-01-25T04:23:27.021Z,0.60
2023-01-25T04:25:55.711Z,0.60
2023-01-25T04:28:24.145Z,0.60
2023-01-25T04:30:52.874Z,0.60
2023-01-25T04:33:20.921Z,0.60
2023-01-25T04:35:49.108Z,0.60
2023-01-25T04:38:18.021Z,0.60
2023-01-25T04:40:47.529Z,0.60
2023-01-25T04:43:16.740Z,0.50
2023-01-25T04:45:44.951Z,0.50
2023-01-25T04:48:15.230Z,0.60
2023-01-25T04:50:44.251Z,0.70
2023-01-25T04:53:13.719Z,0.70
2023-01-25T04:55:41.955Z,0.60
2023-01-25T04:58:11.352Z,0.70
2023-01-25T05:00:39.625Z,0.80
2023-01-25T05:03:07.672Z,0.70
2023-01-25T05:05:35.837Z,0.60
2023-01-25T05:08:03.876Z,0.60
2023-01-25T05:10:31.947Z,0.70
2023-01-25T05:13:00.008Z,0.60
2023-01-25T05:15:29.433Z,0.60
2023-01-25T05:17:57.470Z,0.50
2023-01-25T05:20:25.514Z,0.60
2023-01-25T05:22:53.559Z,0.50
2023-01-25T05:25:39.142Z,0.60
2023-01-25T05:28:07.718Z,0.50
2023-01-25T05:30:37.295Z,0.60
2023-01-25T05:33:05.426Z,0.60
2023-01-25T05:35:33.537Z,0.60
2023-01-25T05:38:01.743Z,0.60
2023-01-25T05:40:29.858Z,0.60
2023-01-25T05:42:59.755Z,0.50
2023-01-25T05:45:30.114Z,0.50
2023-01-25T05:48:00.130Z,0.50
2023-01-25T05:50:28.596Z,0.60
2023-01-25T05:52:56.633Z,0.50
2023-01-25T05:55:24.757Z,0.60
2023-01-25T05:57:55.997Z,0.60
2023-01-25T06:00:24.667Z,0.60
2023-01-25T06:02:52.897Z,0.60
2023-01-25T06:05:22.506Z,0.70
2023-01-25T06:07:50.522Z,0.70
2023-01-25T06:10:18.731Z,0.70
2023-01-25T06:12:46.838Z,0.60
2023-01-25T06:15:15.067Z,0.60
2023-01-25T06:17:43.106Z,0.60
2023-01-25T06:20:12.219Z,0.60
2023-01-25T06:22:41.633Z,0.70
2023-01-25T06:25:10.912Z,0.60
2023-01-25T06:27:39.250Z,0.70
2023-01-25T06:30:08.309Z,0.70
2023-01-25T06:32:36.344Z,0.70
2023-01-25T06:35:04.791Z,0.50
2023-01-25T06:37:32.907Z,0.50
2023-01-25T06:40:02.300Z,0.60
2023-01-25T06:42:30.417Z,0.70
2023-01-25T06:44:58.543Z,0.70
2023-01-25T06:47:26.679Z,0.70
2023-01-25T06:49:54.701Z,0.50
2023-01-25T06:52:22.771Z,0.50
2023-01-25T06:54:50.852Z,0.40
2023-01-25T06:57:20.322Z,0.50
2023-01-25T06:59:48.353Z,0.40
2023-01-25T07:02:17.166Z,0.40
2023-01-25T07:04:45.269Z,0.40
2023-01-25T07:07:13.386Z,0.40
2023-01-25T07:09:41.549Z,0.30
2023-01-25T07:12:09.735Z,0.30
2023-01-25T07:14:39.119Z,0.30
2023-01-25T07:17:07.191Z,0.40
2023-01-25T07:19:35.251Z,0.40
2023-01-25T07:22:03.580Z,0.30
2023-01-25T07:24:31.829Z,0.30
2023-01-25T07:27:00.009Z,0.40
2023-01-25T07:29:28.110Z,0.40
2023-01-25T07:31:57.625Z,0.40
2023-01-25T07:34:25.828Z,0.40
2023-01-25T07:36:53.913Z,0.40
2023-01-25T07:39:21.985Z,0.40
2023-01-25T07:41:50.052Z,0.40
2023-01-25T07:44:18.118Z,0.40
2023-01-25T07:46:46.168Z,0.40
2023-01-25T07:49:15.617Z,0.50
2023-01-25T07:51:43.781Z,0.40
2023-01-25T07:54:13.114Z,0.50
2023-01-25T07:56:41.499Z,0.50
2023-01-25T07:59:11.051Z,0.50
2023-01-25T08:01:40.631Z,0.50
2023-01-25T08:04:09.370Z,0.50
2023-01-25T08:06:39.920Z,0.50
2023-01-25T08:09:12.054Z,0.50
2023-01-25T08:11:40.580Z,0.50
2023-01-25T08:14:09.173Z,0.50
2023-01-25T08:16:37.349Z,0.60
2023-01-25T08:19:05.964Z,0.60
2023-01-25T08:21:35.806Z,0.70
2023-01-25T08:24:07.371Z,0.60
2023-01-25T08:26:36.850Z,0.70
2023-01-25T08:29:05.584Z,0.70
2023-01-25T08:31:35.692Z,0.70
2023-01-25T08:34:03.938Z,0.60
2023-01-25T08:36:32.133Z,0.60
2023-01-25T08:39:01.416Z,0.60
2023-01-25T08:41:32.350Z,0.50
2023-01-25T08:44:01.090Z,0.50
2023-01-25T08:46:32.102Z,0.50
2023-01-25T08:49:01.856Z,0.50
2023-01-25T08:51:31.620Z,0.60
2023-01-25T08:54:04.061Z,0.60
2023-01-25T08:56:33.886Z,0.70
2023-01-25T08:59:01.981Z,0.70
2023-01-25T09:01:30.106Z,0.80
2023-01-25T09:03:58.271Z,0.70
2023-01-25T09:06:26.676Z,0.70
2023-01-25T09:08:54.839Z,0.60
2023-01-25T09:11:24.303Z,0.70
2023-01-25T09:13:53.972Z,0.70
2023-01-25T09:16:28.729Z,0.70
2023-01-25T09:18:59.232Z,0.70
2023-01-25T09:21:27.492Z,0.70
2023-01-25T09:24:11.470Z,0.80
2023-01-25T09:26:42.937Z,0.80
2023-01-25T09:29:14.381Z,0.90
2023-01-25T09:31:43.860Z,0.90
2023-01-25T09:34:13.197Z,0.90
2023-01-25T09:36:41.261Z,0.90
2023-01-25T09:39:12.198Z,1.00
2023-01-25T09:42:23.285Z,1.00
2023-01-25T09:45:12.803Z,1.10
2023-01-25T09:47:49.007Z,1.10
2023-01-25T09:50:37.224Z,0.90
2023-01-25T09:53:22.641Z,1.00
2023-01-25T09:55:54.059Z,1.00
2023-01-25T09:58:25.386Z,1.00
2023-01-25T10:01:09.612Z,0.90
2023-01-25T10:03:48.932Z,0.90
2023-01-25T10:06:19.046Z,0.90
2023-01-25T10:08:55.058Z,1.00
2023-01-25T10:11:27.192Z,1.00
2023-01-25T10:13:57.070Z,1.00
2023-01-25T10:16:32.831Z,1.00
2023-01-25T10:19:13.615Z,1.10
2023-01-25T10:21:44.674Z,1.20
2023-01-25T10:24:40.891Z,1.20
2023-01-25T10:27:21.191Z,1.20
2023-01-25T10:29:51.335Z,1.10
2023-01-25T10:32:26.829Z,1.00
2023-01-25T10:34:57.857Z,1.00
2023-01-25T10:37:30.104Z,1.00
2023-01-25T10:40:04.261Z,1.00
2023-01-25T10:42:42.608Z,1.10
2023-01-25T10:45:13.714Z,1.20
2023-01-25T10:47:47.019Z,1.20
2023-01-25T10:50:49.345Z,1.20
2023-01-25T10:53:27.276Z,1.20
2023-01-25T10:56:13.248Z,1.10
2023-01-25T10:58:43.737Z,1.10
2023-01-25T11:01:15.485Z,1.00
2023-01-25T11:03:45.900Z,0.90
2023-01-25T11:06:14.225Z,0.90
2023-01-25T11:08:43.580Z,0.90
2023-01-25T11:11:24.458Z,1.00
2023-01-25T11:13:54.915Z,1.00
2023-01-25T11:16:34.683Z,1.10
2023-01-25T11:19:24.886Z,1.10
2023-01-25T11:21:54.171Z,1.10
2023-01-25T11:24:22.505Z,1.10
2023-01-25T11:26:50.560Z,1.00
2023-01-25T11:29:20.200Z,1.10
2023-01-25T11:31:50.442Z,1.00
2023-01-25T11:34:23.127Z,1.20
2023-01-25T11:37:20.156Z,1.20
2023-01-25T11:39:58.739Z,1.30
2023-01-25T11:42:35.399Z,1.30
2023-01-25T11:45:47.333Z,1.30
2023-01-25T11:48:31.768Z,1.30
2023-01-25T11:51:07.155Z,1.40
2023-01-25T11:54:10.595Z,1.40
2023-01-25T11:56:51.865Z,1.40
2023-01-25T11:59:45.407Z,1.50
2023-01-25T12:02:36.684Z,1.60
2023-01-25T12:05:22.096Z,1.50
2023-01-25T12:08:01.202Z,1.60
2023-01-25T12:10:41.317Z,1.60
2023-01-25T12:13:16.179Z,1.50
2023-01-25T12:16:02.168Z,1.50
2023-01-25T12:19:01.141Z,1.50
2023-01-25T12:21:45.194Z,1.50
2023-01-25T12:24:28.187Z,1.40
2023-01-25T12:27:02.799Z,1.40
2023-01-25T12:29:36.357Z,1.30
2023-01-25T12:32:10.468Z,1.40
2023-01-25T12:34:40.770Z,1.50
2023-01-25T12:37:17.326Z,1.50
2023-01-25T12:39:55.004Z,1.40
2023-01-25T12:42:26.315Z,1.30
2023-01-25T12:44:59.549Z,1.40
2023-01-25T12:47:36.145Z,1.50
2023-01-25T12:50:14.571Z,1.60
2023-01-25T12:52:46.971Z,1.70
2023-01-25T12:55:18.367Z,1.80
2023-01-25T12:57:57.706Z,1.70
2023-01-25T13:00:34.517Z,1.70
2023-01-25T13:03:17.477Z,1.60
2023-01-25T13:05:52.283Z,1.50
2023-01-25T13:08:32.467Z,1.50
2023-01-25T13:11:11.426Z,1.50
2023-01-25T13:13:39.609Z,1.50
2023-01-25T13:16:34.758Z,1.60
2023-01-25T13:19:03.212Z,1.50
2023-01-25T13:21:44.948Z,1.50
2023-01-25T13:24:25.122Z,1.50
2023-01-25T13:27:03.412Z,1.50
2023-01-25T13:29:56.467Z,1.50
2023-01-25T13:33:07.607Z,1.40
2023-01-25T13:35:46.187Z,1.40
2023-01-25T13:38:32.252Z,1.40
2023-01-25T13:41:24.227Z,1.40
2023-01-25T13:44:14.036Z,1.40
2023-01-25T13:46:42.145Z,1.40
2023-01-25T13:49:23.673Z,1.30
2023-01-25T13:51:51.850Z,1.30
2023-01-25T13:54:19.938Z,1.20
2023-01-25T13:56:48.097Z,1.20
2023-01-25T13:59:28.005Z,1.10
2023-01-25T14:01:57.308Z,1.20
2023-01-25T14:04:25.677Z,1.10
2023-01-25T14:06:58.282Z,1.20
2023-01-25T14:09:26.507Z,1.30
2023-01-25T14:11:57.142Z,1.20
2023-01-25T14:14:29.390Z,1.20
2023-01-25T14:17:11.048Z,1.20
2023-01-25T14:19:41.025Z,1.10
2023-01-25T14:22:30.754Z,1.10
2023-01-25T14:25:08.469Z,1.00
2023-01-25T14:27:38.224Z,1.00
2023-01-25T14:30:16.499Z,1.00
2023-01-25T14:32:44.616Z,1.00
2023-01-25T14:35:54.800Z,0.90
2023-01-25T14:38:32.826Z,0.80
2023-01-25T14:41:06.989Z,0.60
2023-01-25T14:43:37.708Z,0.70
2023-01-25T14:46:21.739Z,0.70
2023-01-25T14:48:50.300Z,0.80
2023-01-25T14:51:26.079Z,0.70
2023-01-25T14:54:00.945Z,0.70
2023-01-25T14:56:43.324Z,0.70
2023-01-25T14:59:33.755Z,0.60
2023-01-25T15:02:05.761Z,0.50
2023-01-25T15:04:35.482Z,0.50
2023-01-25T15:07:16.811Z,0.50
2023-01-25T15:10:04.849Z,0.50
2023-01-25T15:12:33.931Z,0.60
2023-01-25T15:15:02.874Z,0.60
2023-01-25T15:17:44.120Z,0.70
2023-01-25T15:20:36.562Z,0.60
2023-01-25T15:23:24.387Z,0.60
2023-01-25T15:25:54.414Z,0.50
2023-01-25T15:28:23.358Z,0.50
2023-01-25T15:30:52.033Z,0.60
2023-01-25T15:33:24.557Z,0.60
2023-01-25T15:35:53.502Z,0.70
2023-01-25T15:38:22.932Z,0.80
2023-01-25T15:40:51.042Z,0.60
2023-01-25T15:43:20.825Z,0.60
2023-01-25T15:45:51.850Z,0.60
2023-01-25T15:48:29.281Z,0.50
2023-01-25T15:50:57.621Z,0.50
2023-01-25T15:53:26.324Z,0.50
2023-01-25T15:55:58.641Z,0.50
2023-01-25T15:58:29.267Z,0.40
2023-01-25T16:00:57.468Z,0.40
2023-01-25T16:03:27.094Z,0.30
2023-01-25T16:05:59.308Z,0.30
2023-01-25T16:08:27.964Z,0.30
2023-01-25T16:10:56.269Z,0.30
2023-01-25T16:13:24.964Z,0.20
2023-01-25T16:15:55.289Z,0.20
2023-01-25T16:18:23.711Z,0.00
2023-01-25T16:20:53.269Z,0.00
2023-01-25T16:23:21.330Z,0.10
2023-01-25T16:25:49.873Z,0.10
2023-01-25T16:28:20.890Z,0.10
2023-01-25T16:30:49.891Z,0.10
2023-01-25T16:33:24.273Z,0.20
2023-01-25T16:36:05.150Z,0.20
2023-01-25T16:38:33.354Z,0.30
2023-01-25T16:41:01.549Z,0.20
2023-01-25T16:43:42.090Z,0.10
2023-01-25T16:46:17.477Z,0.10
2023-01-25T16:48:46.123Z,0.10
2023-01-25T16:51:20.299Z,0.20
2023-01-25T16:53:49.760Z,0.20
2023-01-25T16:56:22.105Z,0.10
2023-01-25T16:58:51.693Z,0.00
2023-01-25T17:01:21.145Z,0.00
2023-01-25T17:03:49.885Z,0.00
2023-01-25T17:06:21.228Z,0.00
2023-01-25T17:08:49.970Z,-0.10
2023-01-25T17:11:19.962Z,-0.10
2023-01-25T17:13:50.376Z,-0.10
2023-01-25T17:16:20.055Z,-0.10
2023-01-25T17:21:41.138Z,0.10
2023-01-25T17:24:09.363Z,0.10
2023-01-25T17:26:40.823Z,0.00
2023-01-25T17:29:39.019Z,-0.10
2023-01-25T17:32:09.797Z,-0.20
2023-01-25T17:34:43.722Z,-0.30
2023-01-25T17:37:44.416Z,-0.40
2023-01-25T17:40:27.764Z,-0.40
2023-01-25T17:42:56.008Z,-0.40
2023-01-25T17:45:24.136Z,-0.40
2023-01-25T17:50:46.764Z,-0.50
2023-01-25T17:53:16.480Z,-0.50
2023-01-25T17:56:29.405Z,-0.40
2023-01-25T17:58:58.430Z,-0.50
2023-01-25T18:01:29.498Z,-0.40
2023-01-25T18:03:58.128Z,-0.30
2023-01-25T18:06:55.767Z,-0.50
2023-01-25T18:09:51.222Z,-0.40
2023-01-25T18:12:20.647Z,-0.40
2023-01-25T18:17:39.148Z,-0.30
2023-01-25T18:20:10.659Z,-0.30
2023-01-25T18:22:38.864Z,-0.40
2023-01-25T18:25:27.885Z,-0.40
2023-01-25T18:27:56.113Z,-0.50
2023-01-25T18:30:32.973Z,-0.50
2023-01-25T18:33:01.694Z,-0.60
2023-01-25T18:35:30.313Z,-0.60
2023-01-25T18:37:58.472Z,-0.50
2023-01-25T18:40:29.916Z,-0.50
2023-01-25T18:46:01.096Z,-0.60
2023-01-25T18:48:31.532Z,-0.60
2023-01-25T18:50:59.870Z,-0.50
2023-01-25T18:53:28.341Z,-0.50
2023-01-25T18:56:02.056Z,-0.40
2023-01-25T18:58:32.579Z,-0.30
2023-01-25T19:01:06.721Z,-0.30
2023-01-25T19:03:34.844Z,-0.30
2023-01-25T19:06:03.318Z,-0.30
2023-01-25T19:08:33.084Z,-0.30
2023-01-25T19:11:03.842Z,-0.40
2023-01-25T19:13:34.508Z,-0.40
2023-01-25T19:16:04.263Z,-0.50
2023-01-25T19:18:33.902Z,-0.50
2023-01-25T19:21:02.081Z,-0.40
2023-01-25T19:23:35.267Z,-0.40
2023-01-25T19:26:05.919Z,-0.30
2023-01-25T19:28:34.828Z,-0.40
2023-01-25T19:31:07.585Z,-0.40
2023-01-25T19:33:36.509Z,-0.50
2023-01-25T19:36:06.723Z,-0.50
2023-01-25T19:38:38.807Z,-0.60
2023-01-25T19:41:09.992Z,-0.60
2023-01-25T19:43:38.376Z,-0.70
2023-01-25T19:46:36.725Z,-0.70
2023-01-25T19:49:06.787Z,-0.70
2023-01-25T19:51:37.418Z,-0.80
2023-01-25T19:54:07.361Z,-0.80
2023-01-25T19:56:39.166Z,-0.80
2023-01-25T19:59:09.446Z,-0.80
2023-01-25T20:01:37.866Z,-0.80
2023-01-25T20:04:08.049Z,-0.90
2023-01-25T20:06:36.629Z,-0.90
2023-01-25T20:09:05.329Z,-1.00
2023-01-25T20:11:34.138Z,-0.90
2023-01-25T20:14:05.982Z,-1.00
2023-01-25T20:16:37.858Z,-1.00
2023-01-25T20:19:06.019Z,-1.10
2023-01-25T20:21:35.349Z,-0.90
2023-01-25T20:24:07.023Z,-1.10
2023-01-25T20:26:38.987Z,-1.10
2023-01-25T20:29:09.289Z,-1.10
2023-01-25T20:31:39.313Z,-1.00
2023-01-25T20:34:09.735Z,-0.90
2023-01-25T20:36:38.005Z,-0.90
2023-01-25T20:39:07.291Z,-0.80
2023-01-25T20:41:36.208Z,-0.80
2023-01-25T20:44:08.694Z,-0.80
2023-01-25T20:46:39.612Z,-0.80
2023-01-25T20:49:10.353Z,-0.80
2023-01-25T20:51:38.391Z,-0.80
2023-01-25T20:54:07.115Z,-0.80
2023-01-25T20:56:36.035Z,-0.90
2023-01-25T20:59:04.433Z,-0.90
2023-01-25T21:01:36.788Z,-0.90
2023-01-25T21:04:07.977Z,-0.80
2023-01-25T21:06:36.582Z,-0.80
2023-01-25T21:09:05.515Z,-0.70
2023-01-25T21:11:34.605Z,-0.60
2023-01-25T21:14:02.720Z,-0.50
2023-01-25T21:16:30.893Z,-0.50
2023-01-25T21:19:01.353Z,-0.40
2023-01-25T21:21:33.065Z,-0.40
2023-01-25T21:24:02.649Z,-0.50
2023-01-25T21:26:32.298Z,-0.50
2023-01-25T21:29:01.792Z,-0.50
2023-01-25T21:31:32.803Z,-0.50
2023-01-25T21:34:01.792Z,-0.70
2023-01-25T21:36:31.543Z,-0.60
2023-01-25T21:39:00.151Z,-0.60
2023-01-25T21:41:30.220Z,-0.60
2023-01-25T21:44:17.553Z,-0.70
2023-01-25T21:47:06.053Z,-0.70
2023-01-25T21:49:51.826Z,-0.70
2023-01-25T21:52:21.449Z,-0.70
2023-01-25T21:54:49.505Z,-0.30
2023-01-25T21:57:17.584Z,-0.40
2023-01-25T21:59:45.644Z,-0.50
2023-01-25T22:02:15.737Z,-0.60
2023-01-25T22:04:44.007Z,-0.60
2023-01-25T22:07:12.697Z,-0.60
2023-01-25T22:09:42.264Z,-0.60
2023-01-25T22:12:11.782Z,-0.60
2023-01-25T22:14:39.887Z,-0.70
2023-01-25T22:17:08.013Z,-0.80
2023-01-25T22:19:36.163Z,-0.90
2023-01-25T22:22:04.283Z,-0.70
2023-01-25T22:24:32.352Z,-0.90
2023-01-25T22:27:28.851Z,-1.00
2023-01-25T22:29:56.912Z,-0.90
2023-01-25T22:32:25.035Z,-0.90
2023-01-25T22:34:53.150Z,-1.00
2023-01-25T22:37:21.254Z,-1.00
2023-01-25T22:39:49.358Z,-1.00
2023-01-25T22:42:18.787Z,-1.00
2023-01-25T22:44:46.807Z,-0.90
2023-01-25T22:47:14.899Z,-0.80
2023-01-25T22:49:43.109Z,-0.80
2023-01-25T22:52:11.307Z,-0.70
2023-01-25T22:54:39.377Z,-0.80
2023-01-25T22:57:07.519Z,-0.80
2023-01-25T22:59:36.940Z,-1.00
2023-01-25T23:02:05.002Z,-1.00
2023-01-25T23:04:33.119Z,-1.00
2023-01-25T23:07:12.249Z,-0.90
2023-01-25T23:09:41.567Z,-0.90
2023-01-25T23:12:09.987Z,-0.80
2023-01-25T23:14:51.298Z,-0.90
2023-01-25T23:17:37.740Z,-0.90
2023-01-25T23:20:06.854Z,-0.90
2023-01-25T23:22:34.937Z,-0.90
2023-01-25T23:25:02.991Z,-0.90
2023-01-25T23:27:31.046Z,-1.00
2023-01-25T23:30:00.449Z,-1.00
2023-01-25T23:32:29.322Z,-0.90
2023-01-25T23:34:57.615Z,-1.00
2023-01-25T23:37:25.686Z,-0.90
2023-01-25T23:39:54.159Z,-1.00
2023-01-25T23:42:22.531Z,-1.00
2023-01-25T23:44:51.106Z,-1.10
2023-01-25T23:47:20.860Z,-1.10
2023-01-25T23:49:49.218Z,-1.20
2023-01-25T23:52:17.598Z,-1.20
2023-01-25T23:54:46.491Z,-1.10
2023-01-25T23:57:15.525Z,-1.10
2023-01-25T23:59:44.444Z,-1.10
